Time;durP1;ratioP1;P1;durP2;ratioP2;P2;SDS_P1;SDS_P2;PMS_P1;PMS_P2;Temp;Humidity;BMP_temperature;BMP_pressure;BME280_temperature;BME280_humidity;BME280_pressure;Samples;Min_cycle;Max_cycle;Signal;HPM_P1;HPM_P2
2022/04/05 00:02:13;;;;;;;1.60;1.50;;;;;;;3.82;100.00;97087.84;10394102;28;20049;-63
2022/04/05 00:07:17;;;;;;;1.85;1.75;;;;;;;3.75;100.00;97089.41;10390724;28;20841;-62
2022/04/05 00:12:21;;;;;;;1.90;1.80;;;;;;;3.67;100.00;97087.50;10391105;28;20045;-63
2022/04/05 00:17:24;;;;;;;2.03;1.92;;;;;;;3.58;100.00;97070.63;10393045;28;20053;-62
2022/04/05 00:22:29;;;;;;;2.20;2.00;;;;;;;3.53;100.00;97079.03;10396991;28;20042;-62
2022/04/05 00:27:34;;;;;;;2.53;2.33;;;;;;;3.46;100.00;97066.50;10399040;28;20048;-63
2022/04/05 00:32:37;;;;;;;2.08;1.98;;;;;;;3.44;100.00;97065.81;10397263;28;20096;-63
2022/04/05 00:37:40;;;;;;;2.30;2.20;;;;;;;3.38;100.00;97065.41;10459816;28;20029;-58
2022/04/05 00:42:44;;;;;;;2.35;2.20;;;;;;;3.37;100.00;97069.06;10476099;23;20045;-64
2022/04/05 00:47:50;;;;;;;2.05;1.95;;;;;;;3.37;100.00;97058.41;10376949;28;20420;-62
2022/04/05 00:52:53;;;;;;;2.50;2.30;;;;;;;3.34;100.00;97064.06;10385190;28;20782;-62
2022/04/05 00:58:01;;;;;;;2.15;2.05;;;;;;;3.32;100.00;97062.50;10388935;28;20568;-64
2022/04/05 01:03:04;;;;;;;1.90;1.80;;;;;;;3.31;100.00;97045.72;10387463;28;20800;-64
2022/04/05 01:08:09;;;;;;;2.25;2.05;;;;;;;3.28;100.00;97048.66;10385075;28;20489;-63
2022/04/05 01:13:15;;;;;;;2.78;1.98;;;;;;;3.29;100.00;97049.50;10385258;28;20050;-62
2022/04/05 01:18:35;;;;;;;2.15;2.05;;;;;;;3.23;100.00;97030.47;10382550;28;20049;-63
2022/04/05 01:23:38;;;;;;;2.00;1.90;;;;;;;3.24;100.00;97047.28;10372337;28;20441;-64
2022/04/05 01:28:42;;;;;;;2.00;1.90;;;;;;;3.21;100.00;97036.94;10384417;28;20041;-64
2022/04/05 01:33:45;;;;;;;1.80;1.70;;;;;;;3.22;100.00;97030.66;10398466;28;20555;-66
2022/04/05 01:38:48;;;;;;;1.90;1.80;;;;;;;3.19;100.00;97038.91;10399517;28;20080;-66
2022/04/05 01:43:53;;;;;;;1.95;1.85;;;;;;;3.17;100.00;97023.09;10389246;28;20061;-66
2022/04/05 01:48:56;;;;;;;1.60;1.50;;;;;;;3.20;100.00;97029.94;10399760;28;20157;-67
2022/04/05 01:54:02;;;;;;;1.83;1.73;;;;;;;3.22;100.00;97020.00;10406150;28;20126;-67
2022/04/05 01:59:07;;;;;;;1.90;1.80;;;;;;;3.18;100.00;97021.28;10409608;28;20075;-66
2022/04/05 02:04:12;;;;;;;1.95;1.70;;;;;;;3.18;100.00;97026.59;10402501;28;20056;-68
2022/04/05 02:09:16;;;;;;;1.60;1.50;;;;;;;3.19;100.00;97017.63;10379890;28;20131;-67
2022/04/05 02:14:20;;;;;;;2.08;1.50;;;;;;;3.19;100.00;97017.63;10386401;28;20064;-68
2022/04/05 02:19:24;;;;;;;1.60;1.50;;;;;;;3.22;100.00;97009.34;10409408;28;21134;-68
2022/04/05 02:24:28;;;;;;;1.52;1.40;;;;;;;3.21;100.00;97005.84;10381950;28;20144;-67
2022/04/05 02:29:34;;;;;;;1.38;1.30;;;;;;;3.26;100.00;97008.03;10377700;28;20840;-67
2022/04/05 02:34:48;;;;;;;2.40;1.30;;;;;;;3.28;100.00;96998.09;10374531;28;20099;-67
2022/04/05 02:39:52;;;;;;;1.20;1.20;;;;;;;3.31;100.00;97004.94;10371718;28;20045;-67
2022/04/05 02:44:57;;;;;;;1.42;1.40;;;;;;;3.32;100.00;97001.28;10368681;28;20164;-67
2022/04/05 02:50:02;;;;;;;1.48;1.38;;;;;;;3.34;100.00;97005.50;10372899;28;20045;-67
2022/04/05 02:55:07;;;;;;;1.30;1.30;;;;;;;3.35;100.00;97006.31;10367107;28;20045;-67
2022/04/05 03:00:15;;;;;;;1.25;1.25;;;;;;;3.38;100.00;97001.53;10387931;28;20045;-67
2022/04/05 03:05:22;;;;;;;1.27;1.27;;;;;;;3.41;100.00;96992.38;10386974;28;20057;-67
2022/04/05 03:10:32;;;;;;;1.35;1.30;;;;;;;3.43;100.00;96987.75;10371957;28;20048;-67
2022/04/05 03:15:39;;;;;;;1.30;1.20;;;;;;;3.43;100.00;96990.41;10391062;28;20053;-67
2022/04/05 03:20:43;;;;;;;1.38;1.33;;;;;;;3.44;100.00;96999.25;10392572;28;20045;-68
2022/04/05 03:25:47;;;;;;;1.15;1.10;;;;;;;3.46;100.00;97000.78;10371850;28;20052;-67
2022/04/05 03:30:52;;;;;;;1.10;1.10;;;;;;;3.49;100.00;97003.13;10375642;28;20046;-68
2022/04/05 03:35:56;;;;;;;0.95;0.95;;;;;;;3.53;100.00;97012.47;10375989;28;20057;-68
2022/04/05 03:41:02;;;;;;;0.60;0.60;;;;;;;3.62;100.00;97016.06;10374976;28;20053;-68
2022/04/05 03:46:15;;;;;;;0.60;0.60;;;;;;;3.70;100.00;97020.63;10374344;28;20200;-68
2022/04/05 03:51:19;;;;;;;0.63;0.63;;;;;;;3.72;100.00;97012.47;10375000;28;20418;-68
2022/04/05 03:56:30;;;;;;;0.70;0.70;;;;;;;3.69;100.00;97013.63;10373929;28;20056;-68
2022/04/05 04:01:40;;;;;;;0.60;0.60;;;;;;;3.72;100.00;97008.00;10395057;28;20052;-68
2022/04/05 04:06:45;;;;;;;0.70;0.70;;;;;;;3.74;100.00;97013.16;10389796;28;20053;-68
2022/04/05 04:11:50;;;;;;;0.70;0.70;;;;;;;3.75;100.00;97014.84;10387537;28;20052;-68
2022/04/05 04:16:56;;;;;;;0.70;0.70;;;;;;;3.76;100.00;97008.53;10389330;28;20042;-68
2022/04/05 04:21:59;;;;;;;1.65;0.70;;;;;;;3.80;100.00;97020.56;10374172;28;20049;-69
2022/04/05 04:27:03;;;;;;;0.60;0.60;;;;;;;3.83;100.00;97028.22;10373220;28;20098;-68
2022/04/05 04:32:09;;;;;;;0.63;0.63;;;;;;;3.85;100.00;97029.75;10389366;28;20049;-69
2022/04/05 04:37:12;;;;;;;0.70;0.70;;;;;;;3.90;100.00;97037.28;10388026;28;20045;-69
2022/04/05 04:42:15;;;;;;;0.70;0.70;;;;;;;3.94;100.00;97033.31;10391103;28;20037;-69
2022/04/05 04:47:19;;;;;;;0.75;0.70;;;;;;;3.95;100.00;97034.16;10373141;28;20117;-69
2022/04/05 04:52:22;;;;;;;0.70;0.70;;;;;;;3.99;100.00;97043.53;10391153;28;20045;-68
2022/04/05 04:57:25;;;;;;;0.77;0.60;;;;;;;4.00;100.00;97048.69;10390259;28;20140;-68
2022/04/05 05:02:30;;;;;;;0.80;0.80;;;;;;;4.04;100.00;97064.38;10391102;28;20055;-68
2022/04/05 05:07:33;;;;;;;0.80;0.80;;;;;;;4.05;100.00;97066.06;10389456;28;20059;-68
2022/04/05 05:12:36;;;;;;;0.70;0.60;;;;;;;4.08;100.00;97084.38;10373909;28;20053;-69
2022/04/05 05:17:40;;;;;;;0.90;0.90;;;;;;;4.07;100.00;97096.03;10390145;28;20243;-69
2022/04/05 05:22:44;;;;;;;1.30;0.90;;;;;;;4.07;100.00;97102.22;10389106;28;20041;-68
2022/04/05 05:27:47;;;;;;;1.00;1.00;;;;;;;4.09;100.00;97115.38;10389644;28;20053;-66
2022/04/05 05:32:51;;;;;;;0.90;0.90;;;;;;;4.12;100.00;97120.41;10388245;28;20116;-61
2022/04/05 05:37:56;;;;;;;1.50;1.40;;;;;;;4.12;100.00;97137.22;10388662;28;20072;-61
2022/04/05 05:43:01;;;;;;;1.40;1.30;;;;;;;4.17;100.00;97134.13;10387486;28;20050;-62
2022/04/05 05:48:07;;;;;;;3.65;1.55;;;;;;;4.19;100.00;97142.78;10387477;28;20053;-62
2022/04/05 05:53:10;;;;;;;1.90;1.80;;;;;;;4.23;100.00;97154.84;10387122;28;20041;-63
2022/04/05 05:58:13;;;;;;;2.53;2.00;;;;;;;4.28;100.00;97159.72;10387315;28;20697;-61
2022/04/05 06:03:18;;;;;;;1.73;1.63;;;;;;;4.31;100.00;97165.56;10386060;28;20053;-60
2022/04/05 06:08:22;;;;;;;1.80;1.70;;;;;;;4.31;100.00;97170.91;10369537;28;20510;-61
2022/04/05 06:13:25;;;;;;;2.22;1.60;;;;;;;4.37;100.00;97181.97;10387033;28;20053;-61
2022/04/05 06:18:30;;;;;;;1.90;1.80;;;;;;;4.41;100.00;97188.66;10390224;28;20337;-62
2022/04/05 06:23:33;;;;;;;1.88;1.77;;;;;;;4.40;100.00;97185.16;10394442;28;20178;-62
2022/04/05 06:28:36;;;;;;;1.92;1.50;;;;;;;4.39;100.00;97191.47;10394179;28;20045;-55
2022/04/05 06:33:40;;;;;;;1.40;1.30;;;;;;;4.42;100.00;97195.66;10394086;28;20064;-61
2022/04/05 06:38:43;;;;;;;3.00;1.50;;;;;;;4.47;100.00;97198.72;10395195;28;20049;-61
2022/04/05 06:43:53;;;;;;;1.60;1.50;;;;;;;4.53;100.00;97203.41;10393748;28;20131;-59
2022/04/05 06:48:57;;;;;;;1.30;1.20;;;;;;;4.57;100.00;97201.31;10393173;28;20496;-61
2022/04/05 06:54:00;;;;;;;1.40;1.30;;;;;;;4.60;100.00;97203.66;10397560;28;20126;-61
2022/04/05 06:59:03;;;;;;;1.50;1.20;;;;;;;4.66;100.00;97204.88;10383533;28;20038;-61
2022/04/05 07:04:07;;;;;;;1.40;1.30;;;;;;;4.69;100.00;97202.75;10389105;28;20051;-62
2022/04/05 07:09:11;;;;;;;1.27;1.17;;;;;;;4.74;100.00;97220.97;10392357;28;20139;-61
2022/04/05 07:14:14;;;;;;;1.30;1.20;;;;;;;4.80;100.00;97220.31;10392572;28;20045;-59
2022/04/05 07:19:18;;;;;;;1.00;1.00;;;;;;;4.84;100.00;97215.50;10393363;28;20045;-59
2022/04/05 07:24:21;;;;;;;1.38;1.20;;;;;;;4.91;100.00;97219.25;10390599;28;20211;-61
2022/04/05 07:29:24;;;;;;;1.25;1.15;;;;;;;4.98;100.00;97225.63;10389850;28;20041;-62
2022/04/05 07:34:28;;;;;;;1.30;0.80;;;;;;;5.12;100.00;97215.41;10391818;28;20123;-61
2022/04/05 07:39:31;;;;;;;0.90;0.80;;;;;;;5.16;100.00;97224.78;10390765;28;20528;-57
2022/04/05 07:44:34;;;;;;;0.73;0.40;;;;;;;5.35;100.00;97227.22;10390255;28;20060;-61
2022/04/05 07:49:39;;;;;;;0.35;0.32;;;;;;;5.52;100.00;97230.81;10391325;28;20541;-59
2022/04/05 07:54:42;;;;;;;0.30;0.30;;;;;;;5.65;100.00;97221.53;10390665;28;20071;-61
2022/04/05 07:59:45;;;;;;;0.40;0.35;;;;;;;5.73;100.00;97220.75;10369419;28;20081;-61
2022/04/05 08:04:49;;;;;;;0.30;0.30;;;;;;;5.82;100.00;97215.25;10389797;28;20054;-59
2022/04/05 08:09:52;;;;;;;0.30;0.30;;;;;;;5.88;100.00;97220.97;10390502;28;20133;-61
2022/04/05 08:14:55;;;;;;;0.30;0.25;;;;;;;5.94;100.00;97223.00;10388866;28;20765;-59
2022/04/05 08:19:59;;;;;;;0.22;0.22;;;;;;;6.00;100.00;97227.72;10372525;28;20156;-57
2022/04/05 08:25:03;;;;;;;0.20;0.20;;;;;;;6.01;100.00;97227.56;10390289;28;20144;-61
2022/04/05 08:30:08;;;;;;;0.20;0.20;;;;;;;6.06;100.00;97235.09;10390083;28;20093;-57
2022/04/05 08:35:15;;;;;;;0.28;0.28;;;;;;;6.08;100.00;97234.94;10389803;28;20056;-62
2022/04/05 08:40:20;;;;;;;0.10;0.10;;;;;;;6.08;100.00;97225.06;10371796;28;20049;-57
2022/04/05 08:45:25;;;;;;;0.20;0.20;;;;;;;6.14;100.00;97234.28;10389380;28;20068;-57
2022/04/05 08:50:31;;;;;;;0.20;0.20;;;;;;;6.21;100.00;97223.78;10389170;28;20056;-60
2022/04/05 08:55:35;;;;;;;0.35;0.10;;;;;;;6.29;100.00;97213.94;10388926;28;20056;-62
2022/04/05 09:00:39;;;;;;;0.10;0.10;;;;;;;6.38;100.00;97209.44;10388861;28;20171;-61
2022/04/05 09:05:46;;;;;;;0.20;0.20;;;;;;;6.48;100.00;97220.81;10371756;28;20076;-59
2022/04/05 09:10:52;;;;;;;0.10;0.10;;;;;;;6.58;100.00;97223.34;10389476;28;20045;-60
2022/04/05 09:15:58;;;;;;;0.03;0.03;;;;;;;6.62;100.00;97221.19;10388961;28;20045;-59
2022/04/05 09:21:04;;;;;;;0.10;0.10;;;;;;;6.62;100.00;97219.31;10387978;28;20061;-61
2022/04/05 09:26:09;;;;;;;0.13;0.13;;;;;;;6.65;100.00;97228.84;10387187;28;20053;-56
2022/04/05 09:31:14;;;;;;;0.17;0.17;;;;;;;6.68;100.00;97225.03;10388604;28;20049;-61
2022/04/05 09:36:18;;;;;;;0.17;0.10;;;;;;;6.71;100.00;97225.53;10387201;28;21200;-61
2022/04/05 09:41:23;;;;;;;1.08;0.30;;;;;;;6.82;100.00;97226.19;10388957;28;20045;-61
2022/04/05 09:46:28;;;;;;;0.10;0.10;;;;;;;6.81;100.00;97230.72;10387420;28;20060;-62
2022/04/05 09:51:44;;;;;;;0.15;0.10;;;;;;;6.78;100.00;97242.59;10391628;28;20052;-60
2022/04/05 09:56:47;;;;;;;0.20;0.20;;;;;;;6.77;100.00;97251.63;10395637;28;20403;-62
2022/04/05 10:01:52;;;;;;;0.13;0.13;;;;;;;6.76;100.00;97252.63;10397722;28;20045;-62
2022/04/05 10:06:56;;;;;;;0.47;0.20;;;;;;;6.77;100.00;97256.97;10373215;28;20222;-63
2022/04/05 10:12:00;;;;;;;0.85;0.20;;;;;;;6.81;100.00;97251.28;10395683;28;20472;-63
2022/04/05 10:17:03;;;;;;;0.30;0.30;;;;;;;6.89;100.00;97253.97;10378149;28;20077;-63
2022/04/05 10:22:08;;;;;;;0.22;0.20;;;;;;;7.00;100.00;97260.84;10394913;28;20045;-64
2022/04/05 10:27:11;;;;;;;0.20;0.20;;;;;;;6.98;100.00;97250.31;10395652;28;20049;-63
2022/04/05 10:32:25;;;;;;;1.75;0.20;;;;;;;7.02;100.00;97246.28;10396202;28;20145;-66
2022/04/05 10:37:35;;;;;;;0.10;0.10;;;;;;;7.14;100.00;97235.22;10377666;28;20053;-66
2022/04/05 10:42:40;;;;;;;0.28;0.20;;;;;;;7.28;100.00;97239.91;10394226;28;21485;-63
2022/04/05 10:48:11;;;;;;;0.20;0.20;;;;;;;7.33;100.00;97239.38;10376531;28;20053;-64
2022/04/05 10:53:33;;;;;;;0.30;0.30;;;;;;;7.46;100.00;97228.97;10393076;28;20049;-64
2022/04/05 10:58:38;;;;;;;0.40;0.40;;;;;;;7.47;100.00;97224.44;10394051;28;20044;-63
2022/04/05 11:03:44;;;;;;;0.65;0.30;;;;;;;7.34;100.00;97225.84;10374168;28;20053;-62
2022/04/05 11:08:51;;;;;;;0.40;0.40;;;;;;;7.37;100.00;97221.97;10393477;28;20176;-62
2022/04/05 11:14:03;;;;;;;0.55;0.40;;;;;;;7.33;100.00;97216.13;10393767;28;20128;-63
2022/04/05 11:19:06;;;;;;;0.30;0.30;;;;;;;7.35;100.00;97222.13;10393173;28;20421;-61
2022/04/05 11:24:10;;;;;;;0.43;0.43;;;;;;;7.33;100.00;97217.94;10374864;28;20080;-60
2022/04/05 11:29:22;;;;;;;0.35;0.35;;;;;;;7.18;100.00;97228.53;10392815;28;21493;-62
2022/04/05 11:34:37;;;;;;;0.50;0.50;;;;;;;7.14;100.00;97229.88;10391210;28;20071;-62
2022/04/05 11:39:42;;;;;;;0.55;0.55;;;;;;;7.19;100.00;97230.22;10392726;28;20038;-61
2022/04/05 11:44:49;;;;;;;0.50;0.50;;;;;;;7.20;100.00;97230.03;10391585;28;20172;-58
2022/04/05 11:49:53;;;;;;;0.50;0.50;;;;;;;7.37;100.00;97222.78;10391919;28;20050;-61
2022/04/05 12:00:30;;;;;;;0.68;0.40;;;;;;;7.37;100.00;97235.38;10289529;28;20833;-60
2022/04/05 12:05:42;;;;;;;0.30;0.30;;;;;;;7.36;100.00;97228.34;10373983;28;20079;-61
2022/04/05 12:10:46;;;;;;;0.30;0.30;;;;;;;7.42;100.00;97224.97;10391143;28;20037;-62
2022/04/05 12:15:58;;;;;;;0.20;0.20;;;;;;;7.40;100.00;97224.31;10390566;28;20051;-64
2022/04/05 12:21:03;;;;;;;0.40;0.40;;;;;;;7.46;100.00;97223.63;10390588;28;20179;-62
2022/04/05 12:26:19;;;;;;;0.40;0.40;;;;;;;7.45;100.00;97218.44;10390182;28;20112;-63
2022/04/05 12:31:26;;;;;;;0.50;0.50;;;;;;;7.40;100.00;97219.78;10390036;28;20042;-63
2022/04/05 12:36:34;;;;;;;0.50;0.50;;;;;;;7.42;100.00;97224.97;10388978;28;20053;-61
2022/04/05 12:41:40;;;;;;;0.60;0.60;;;;;;;7.45;100.00;97213.09;10389501;28;20160;-62
2022/04/05 12:46:48;;;;;;;0.55;0.52;;;;;;;7.42;100.00;97226.81;10410085;23;20151;-68
2022/04/05 12:51:52;;;;;;;0.50;0.50;;;;;;;7.36;100.00;97217.63;10372272;28;20049;-68
2022/04/05 12:57:13;;;;;;;0.60;0.60;;;;;;;7.35;100.00;97205.22;10390504;28;20516;-67
2022/04/05 13:02:19;;;;;;;0.87;0.70;;;;;;;7.38;100.00;97215.63;10392917;28;20043;-66
2022/04/05 13:07:24;;;;;;;0.80;0.80;;;;;;;7.44;100.00;97214.91;10390135;28;20049;-66
2022/04/05 13:12:44;;;;;;;0.80;0.80;;;;;;;7.37;100.00;97208.59;10393437;28;20575;-64
2022/04/05 13:17:47;;;;;;;1.27;1.17;;;;;;;7.39;100.00;97202.03;10389117;28;20402;-65
2022/04/05 13:23:01;;;;;;;0.90;0.90;;;;;;;7.44;100.00;97198.84;10389630;28;20033;-64
2022/04/05 13:28:06;;;;;;;1.00;1.00;;;;;;;7.57;100.00;97192.97;10392536;28;20572;-68
2022/04/05 13:33:10;;;;;;;0.82;0.82;;;;;;;7.64;100.00;97182.38;10391330;28;20413;-66
2022/04/05 13:38:13;;;;;;;0.60;0.60;;;;;;;7.74;100.00;97183.00;10399357;28;20136;-65
2022/04/05 13:43:19;;;;;;;0.85;0.60;;;;;;;7.79;100.00;97179.81;10392156;28;20030;-65
2022/04/05 13:48:23;;;;;;;0.82;0.82;;;;;;;7.79;100.00;97185.97;10392918;28;20302;-65
2022/04/05 13:53:27;;;;;;;0.70;0.70;;;;;;;7.78;100.00;97187.00;10389818;28;20045;-64
2022/04/05 13:58:32;;;;;;;0.90;0.90;;;;;;;7.85;100.00;97181.78;10371669;28;20129;-66
2022/04/05 14:03:36;;;;;;;0.82;0.82;;;;;;;7.87;100.00;97182.44;10368519;28;20051;-66
2022/04/05 14:08:39;;;;;;;1.00;1.00;;;;;;;7.92;100.00;97184.59;10394888;28;20137;-66
2022/04/05 14:13:45;;;;;;;1.15;1.05;;;;;;;7.93;100.00;97164.81;10392900;28;20042;-67
2022/04/05 14:18:49;;;;;;;1.00;0.90;;;;;;;7.97;100.00;97164.28;10393533;28;20041;-67
2022/04/05 14:24:08;;;;;;;1.17;1.10;;;;;;;8.04;100.00;97156.38;10392151;28;20393;-66
2022/04/05 14:29:15;;;;;;;1.00;1.00;;;;;;;8.12;100.00;97144.75;10418575;22;20064;-65
2022/04/05 14:34:19;;;;;;;1.15;1.13;;;;;;;8.17;100.00;97145.06;10405392;28;20531;-65
2022/04/05 14:39:22;;;;;;;1.60;1.20;;;;;;;8.23;100.00;97165.81;10408874;28;20084;-66
2022/04/05 14:44:27;;;;;;;1.40;1.30;;;;;;;8.24;100.00;97146.03;10409011;28;20433;-66
2022/04/05 14:49:31;;;;;;;1.40;1.30;;;;;;;8.24;100.00;97159.44;10404692;28;20049;-65
2022/04/05 14:54:38;;;;;;;1.52;1.30;;;;;;;8.33;100.00;97139.59;10400882;28;20053;-67
2022/04/05 14:59:43;;;;;;;1.65;1.10;;;;;;;8.47;100.00;97147.88;10406001;28;20164;-65
2022/04/05 15:05:42;;;;;;;0.80;0.80;;;;;;;8.57;100.00;97143.13;10439741;28;20025;-63
2022/04/05 15:17:30;;;;;;;;;;;;;;;8.59;100.00;97130.38;10461302;28;20047;-62
2022/04/05 15:22:33;;;;;;;0.45;0.45;;;;;;;8.59;100.00;97122.31;10461064;28;19929;-66
2022/04/05 15:27:37;;;;;;;0.50;0.50;;;;;;;8.61;100.00;97128.34;10429394;28;20052;-66
2022/04/05 15:32:42;;;;;;;0.73;0.60;;;;;;;8.53;100.00;97128.38;10403852;28;20124;-68
2022/04/05 15:37:45;;;;;;;0.60;0.60;;;;;;;8.54;100.00;97123.88;10395684;28;20053;-64
2022/04/05 15:42:49;;;;;;;0.70;0.70;;;;;;;8.48;100.00;97126.25;10397131;28;20041;-67
2022/04/05 15:47:55;;;;;;;0.50;0.50;;;;;;;8.43;100.00;97127.75;10394442;28;20107;-64
2022/04/05 15:53:00;;;;;;;1.25;1.00;;;;;;;8.33;100.00;97139.59;10396127;28;20170;-67
2022/04/05 15:58:05;;;;;;;1.23;0.80;;;;;;;8.25;100.00;97139.66;10397066;28;20461;-64
2022/04/05 16:03:10;;;;;;;0.80;0.80;;;;;;;8.20;100.00;97143.88;10395073;28;20049;-66
2022/04/05 16:08:14;;;;;;;1.52;1.42;;;;;;;8.24;100.00;97140.66;10397195;28;20163;-65
2022/04/05 16:13:18;;;;;;;1.02;1.02;;;;;;;8.20;100.00;97144.69;10397564;28;20041;-65
2022/04/05 16:18:23;;;;;;;1.10;1.00;;;;;;;8.13;100.00;97154.47;10396059;28;20053;-65
2022/04/05 16:23:27;;;;;;;1.30;1.20;;;;;;;8.09;100.00;97140.59;10391510;28;20053;-65
2022/04/05 16:28:32;;;;;;;1.70;1.38;;;;;;;8.07;100.00;97160.53;10338874;28;1079312;-67
2022/04/05 16:33:38;;;;;;;1.55;1.30;;;;;;;8.06;100.00;97148.13;10396751;28;20099;-65
2022/04/05 16:38:43;;;;;;;1.60;1.50;;;;;;;8.01;100.00;97149.53;10395802;28;20045;-62
2022/04/05 16:43:47;;;;;;;1.50;1.40;;;;;;;7.97;100.00;97166.97;10389576;28;20049;-62
2022/04/05 16:48:52;;;;;;;1.27;1.10;;;;;;;7.90;100.00;97191.97;10399359;28;20056;-63
2022/04/05 16:54:00;;;;;;;1.30;1.20;;;;;;;7.92;100.00;97189.94;10374306;28;20051;-65
2022/04/05 16:59:04;;;;;;;2.78;1.50;;;;;;;7.88;100.00;97192.16;10394537;28;20122;-66
2022/04/05 17:04:09;;;;;;;1.40;1.30;;;;;;;7.81;100.00;97193.88;10396229;28;20041;-63
2022/04/05 17:09:12;;;;;;;1.40;1.30;;;;;;;7.75;100.00;97194.56;10397429;28;20045;-65
2022/04/05 17:14:16;;;;;;;2.92;1.30;;;;;;;7.74;100.00;97211.66;10399064;28;20386;-66
2022/04/05 17:19:21;;;;;;;1.40;1.30;;;;;;;7.70;100.00;97206.63;10399022;28;20061;-63
2022/04/05 17:24:24;;;;;;;1.55;1.30;;;;;;;7.70;100.00;97201.25;10397060;28;20040;-65
2022/04/05 17:29:28;;;;;;;1.10;1.10;;;;;;;7.70;100.00;97201.25;10398531;28;20057;-67
2022/04/05 17:34:33;;;;;;;1.70;1.60;;;;;;;7.69;100.00;97199.63;10391152;28;20428;-66
2022/04/05 17:39:36;;;;;;;1.50;1.40;;;;;;;7.68;100.00;97195.25;10391581;28;20041;-70
2022/04/05 17:44:40;;;;;;;1.50;1.40;;;;;;;7.67;100.00;97184.69;10393874;28;20045;-65
2022/04/05 17:49:45;;;;;;;1.40;1.30;;;;;;;7.67;100.00;97196.28;10394584;28;20056;-66
2022/04/05 17:54:49;;;;;;;1.20;1.10;;;;;;;7.69;100.00;97196.94;10395221;28;20053;-67
2022/04/05 17:59:56;;;;;;;0.80;0.80;;;;;;;7.72;100.00;97193.88;10392520;28;20069;-66
2022/04/05 18:05:06;;;;;;;0.50;0.50;;;;;;;7.76;100.00;97201.59;10392401;28;20099;-68
2022/04/05 18:10:12;;;;;;;0.50;0.50;;;;;;;7.78;100.00;97199.56;10392439;28;20053;-65
2022/04/05 18:15:18;;;;;;;0.30;0.30;;;;;;;7.84;100.00;97198.88;10397927;28;20151;-64
2022/04/05 18:20:24;;;;;;;0.43;0.43;;;;;;;7.87;100.00;97206.56;10401409;28;20520;-64
2022/04/05 18:25:28;;;;;;;0.40;0.40;;;;;;;7.91;100.00;97207.91;10401494;28;20061;-64
2022/04/05 18:30:31;;;;;;;0.40;0.40;;;;;;;7.91;100.00;97207.91;10400081;28;20045;-64
2022/04/05 18:35:36;;;;;;;0.43;0.40;;;;;;;7.89;100.00;97211.75;10399863;28;20049;-65
2022/04/05 18:40:39;;;;;;;0.47;0.40;;;;;;;7.88;100.00;97216.28;10400964;28;20049;-61
2022/04/05 18:45:46;;;;;;;0.45;0.40;;;;;;;7.88;100.00;97213.59;10400271;28;20068;-65
2022/04/05 18:50:51;;;;;;;0.40;0.40;;;;;;;7.84;100.00;97209.59;10396574;28;20041;-66
2022/04/05 18:55:55;;;;;;;0.40;0.40;;;;;;;7.88;100.00;97210.94;10400272;28;20041;-65
2022/04/05 19:00:58;;;;;;;0.98;0.60;;;;;;;7.89;100.00;97217.97;10380828;28;20053;-65
2022/04/05 19:06:03;;;;;;;0.50;0.50;;;;;;;7.89;100.00;97228.69;10405356;28;20053;-67
2022/04/05 19:11:07;;;;;;;0.60;0.60;;;;;;;7.92;100.00;97228.34;10398214;28;20095;-67
2022/04/05 19:16:11;;;;;;;0.70;0.70;;;;;;;7.88;100.00;97240.41;10387247;28;20061;-64
2022/04/05 19:21:16;;;;;;;1.40;0.68;;;;;;;7.91;100.00;97234.72;10396377;28;20056;-65
2022/04/05 19:26:20;;;;;;;1.27;0.80;;;;;;;7.92;100.00;97239.06;10389161;28;20123;-65
2022/04/05 19:31:24;;;;;;;0.75;0.70;;;;;;;7.88;100.00;97237.75;10392789;28;20049;-66
2022/04/05 19:36:30;;;;;;;1.95;0.70;;;;;;;7.83;100.00;97245.44;10378482;28;20157;-62
2022/04/05 19:41:35;;;;;;;0.60;0.60;;;;;;;7.86;100.00;97247.78;10398126;28;20045;-63
2022/04/05 19:46:38;;;;;;;0.60;0.60;;;;;;;7.82;100.00;97241.13;10379946;28;20052;-70
2022/04/05 19:51:44;;;;;;;0.60;0.60;;;;;;;7.79;100.00;97244.97;10395826;28;20509;-66
2022/04/05 19:56:47;;;;;;;1.48;0.70;;;;;;;7.80;100.00;97253.88;10398662;28;20115;-70
2022/04/05 20:01:51;;;;;;;0.70;0.70;;;;;;;7.78;100.00;97254.00;10392734;28;20048;-68
2022/04/05 20:06:56;;;;;;;0.90;0.90;;;;;;;7.75;100.00;97248.16;10404518;28;20054;-67
2022/04/05 20:12:00;;;;;;;0.77;0.77;;;;;;;7.73;100.00;97261.75;10401437;28;20046;-67
2022/04/05 20:22:26;;;;;;;0.80;0.80;;;;;;;7.72;100.00;97270.81;10399667;28;20187;-68
2022/04/05 20:27:29;;;;;;;1.10;1.05;;;;;;;7.76;100.00;97252.53;10403887;28;20048;-69
2022/04/05 20:32:33;;;;;;;0.88;0.80;;;;;;;7.78;100.00;97262.06;10399761;28;20057;-69
2022/04/05 20:37:38;;;;;;;0.80;0.80;;;;;;;7.80;100.00;97256.53;10401666;28;20663;-67
2022/04/05 20:42:42;;;;;;;0.90;0.90;;;;;;;7.85;100.00;97246.97;10395367;28;20045;-67
2022/04/05 20:47:45;;;;;;;1.02;1.02;;;;;;;7.85;100.00;97249.66;10400451;28;20049;-68
2022/04/05 20:52:50;;;;;;;1.13;1.13;;;;;;;7.86;100.00;97250.47;10397517;28;20048;-66
2022/04/05 20:57:53;;;;;;;1.10;1.10;;;;;;;7.90;100.00;97235.72;10398653;28;20052;-65
2022/04/05 21:02:58;;;;;;;1.20;1.20;;;;;;;7.96;100.00;97239.56;10394469;28;20081;-67
2022/04/05 21:08:04;;;;;;;1.10;1.10;;;;;;;7.98;100.00;97243.72;10395517;28;20446;-69
2022/04/05 21:13:09;;;;;;;1.42;1.30;;;;;;;7.98;100.00;97249.09;10399081;28;20452;-64
2022/04/05 21:18:13;;;;;;;1.40;1.30;;;;;;;8.01;100.00;97224.63;10411196;23;20726;-64
2022/04/05 21:23:19;;;;;;;1.40;1.30;;;;;;;8.07;100.00;97231.13;10343991;28;20169;-64
2022/04/05 21:29:30;;;;;;;1.27;1.25;;;;;;;8.09;100.00;97237.16;10344371;28;20302;-64
2022/04/05 21:33:49;;;;;;;1.50;1.40;;;;;;;8.14;100.00;97220.53;10343482;28;20501;-69
2022/04/05 21:38:55;;;;;;;1.40;1.40;;;;;;;8.21;100.00;97216.13;10345968;28;20641;-69
2022/04/05 21:43:59;;;;;;;1.55;1.45;;;;;;;8.21;100.00;97220.66;10361977;28;20128;-65
2022/04/05 21:49:03;;;;;;;1.63;1.40;;;;;;;8.21;100.00;97216.13;10351927;28;20049;-65
2022/04/05 21:54:09;;;;;;;1.60;1.50;;;;;;;8.22;100.00;97214.28;10371708;28;20049;-69
2022/04/05 21:59:12;;;;;;;1.55;1.45;;;;;;;8.20;100.00;97219.81;10357424;28;20061;-67
2022/04/05 22:04:16;;;;;;;1.50;1.40;;;;;;;8.24;100.00;97202.38;10356619;28;20050;-67
2022/04/05 22:09:20;;;;;;;1.50;1.40;;;;;;;8.29;100.00;97199.16;10356637;28;20057;-70
2022/04/05 22:14:24;;;;;;;1.85;1.40;;;;;;;8.32;100.00;97196.94;10353402;28;20086;-68
2022/04/05 22:19:27;;;;;;;1.63;1.52;;;;;;;8.33;100.00;97192.44;10351804;28;20052;-68
2022/04/05 22:24:35;;;;;;;1.30;1.30;;;;;;;8.33;100.00;97197.78;10356136;28;20046;-67
2022/04/05 22:29:38;;;;;;;1.27;1.27;;;;;;;8.40;100.00;97203.28;10355955;28;20399;-67
2022/04/05 22:34:41;;;;;;;1.48;1.38;;;;;;;8.42;100.00;97183.31;10352451;28;20045;-68
2022/04/05 22:39:46;;;;;;;1.60;1.50;;;;;;;8.47;100.00;97185.44;10350462;28;20124;-68
2022/04/05 22:44:49;;;;;;;1.67;1.50;;;;;;;8.49;100.00;97180.78;10366315;28;20061;-68
2022/04/05 22:49:53;;;;;;;1.60;1.50;;;;;;;8.50;100.00;97185.13;10349164;28;20525;-68
2022/04/05 22:54:58;;;;;;;1.60;1.50;;;;;;;8.45;100.00;97179.41;10349590;28;20034;-68
2022/04/05 23:00:02;;;;;;;1.52;1.42;;;;;;;8.42;100.00;97185.13;10349121;28;20038;-68
2022/04/05 23:05:06;;;;;;;1.98;1.50;;;;;;;8.38;100.00;97191.91;10351119;28;20137;-69
2022/04/05 23:10:12;;;;;;;1.55;1.45;;;;;;;8.41;100.00;97188.88;10349207;28;20629;-67
2022/04/05 23:15:17;;;;;;;1.63;1.52;;;;;;;8.42;100.00;97188.66;10350185;28;20049;-67
2022/04/05 23:20:20;;;;;;;1.90;1.80;;;;;;;8.43;100.00;97197.53;10349560;28;20057;-68
2022/04/05 23:25:25;;;;;;;1.80;1.70;;;;;;;8.42;100.00;97201.25;10363140;28;20160;-69
2022/04/05 23:30:28;;;;;;;1.80;1.70;;;;;;;8.46;100.00;97199.88;10345900;28;20184;-68
2022/04/05 23:35:31;;;;;;;1.85;1.75;;;;;;;8.46;100.00;97207.94;10348782;28;20042;-68
2022/04/05 23:40:37;;;;;;;2.28;2.15;;;;;;;8.38;100.00;97206.13;10363335;28;20178;-69
2022/04/05 23:45:41;;;;;;;2.28;2.17;;;;;;;8.32;100.00;97207.69;10371601;28;20136;-69
2022/04/05 23:50:45;;;;;;;2.40;2.30;;;;;;;8.27;100.00;97199.34;10362038;28;20214;-67
2022/04/05 23:55:49;;;;;;;2.50;2.40;;;;;;;8.28;100.00;97194.78;10348150;28;20050;-67
